createdAt,value
2022-11-25T00:01:26.093Z,50.50
2022-11-25T00:03:55.080Z,53.80
2022-11-25T00:06:29.968Z,58.00
2022-11-25T00:08:59.337Z,51.40
2022-11-25T00:11:26.603Z,55.80
2022-11-25T00:13:53.654Z,50.20
2022-11-25T00:16:21.886Z,53.10
2022-11-25T00:18:52.252Z,57.10
2022-11-25T00:21:21.480Z,56.30
2022-11-25T00:23:57.022Z,52.40
2022-11-25T00:26:24.420Z,51.70
2022-11-25T00:28:51.969Z,51.10
2022-11-25T00:31:27.597Z,51.10
2022-11-25T00:33:54.452Z,48.00
2022-11-25T00:36:36.455Z,50.00
2022-11-25T00:39:13.436Z,47.20
2022-11-25T00:41:40.392Z,49.90
2022-11-25T00:44:09.681Z,53.90
2022-11-25T00:46:36.149Z,52.10
2022-11-25T00:49:02.670Z,53.60
2022-11-25T00:51:29.212Z,52.10
2022-11-25T00:53:58.946Z,53.90
2022-11-25T00:56:26.273Z,50.70
2022-11-25T00:58:53.464Z,49.80
2022-11-25T01:01:20.146Z,51.80
2022-11-25T01:03:49.531Z,45.70
2022-11-25T01:06:16.079Z,41.80
2022-11-25T01:08:42.539Z,42.70
2022-11-25T01:11:13.167Z,40.50
2022-11-25T01:13:40.059Z,38.60
2022-11-25T01:16:08.776Z,40.20
2022-11-25T01:18:35.698Z,39.80
2022-11-25T01:21:23.347Z,44.50
2022-11-25T01:23:50.525Z,39.20
2022-11-25T01:26:22.889Z,46.80
2022-11-25T01:28:52.856Z,43.30
2022-11-25T01:31:21.194Z,44.30
2022-11-25T01:33:52.558Z,44.40
2022-11-25T01:36:19.380Z,46.80
2022-11-25T01:38:50.815Z,52.90
2022-11-25T01:43:44.145Z,62.30
2022-11-25T01:46:21.065Z,79.60
2022-11-25T01:48:53.655Z,87.40
2022-11-25T01:51:28.058Z,87.30
2022-11-25T01:54:01.417Z,84.80
2022-11-25T01:56:30.931Z,96.10
2022-11-25T01:58:57.572Z,97.30
2022-11-25T02:01:24.221Z,100.70
2022-11-25T02:03:54.443Z,99.40
2022-11-25T02:06:27.999Z,94.10
2022-11-25T02:08:59.679Z,97.20
2022-11-25T02:11:28.620Z,93.60
2022-11-25T02:13:55.859Z,90.70
2022-11-25T02:16:22.342Z,92.70
2022-11-25T02:18:52.222Z,89.30
2022-11-25T02:21:27.082Z,93.70
2022-11-25T02:23:58.891Z,97.80
2022-11-25T02:26:25.753Z,104.30
2022-11-25T02:28:53.060Z,101.50
2022-11-25T02:31:21.848Z,99.70
2022-11-25T02:33:48.764Z,115.90
2022-11-25T02:36:19.953Z,115.50
2022-11-25T02:38:50.778Z,118.70
2022-11-25T02:41:21.087Z,121.40
2022-11-25T02:43:47.611Z,109.00
2022-11-25T02:46:21.824Z,109.00
2022-11-25T02:51:38.707Z,95.70
2022-11-25T02:54:05.633Z,95.30
2022-11-25T02:56:33.815Z,95.90
2022-11-25T02:59:01.393Z,81.30
2022-11-25T03:01:29.172Z,85.30
2022-11-25T03:03:55.645Z,93.60
2022-11-25T03:06:22.384Z,94.40
2022-11-25T03:08:49.074Z,84.70
2022-11-25T03:11:16.044Z,99.20
2022-11-25T03:13:42.562Z,96.30
2022-11-25T03:16:09.388Z,84.90
2022-11-25T03:18:36.389Z,102.70
2022-11-25T03:21:03.136Z,93.90
2022-11-25T03:23:29.677Z,97.80
2022-11-25T03:25:57.242Z,88.60
2022-11-25T03:28:23.666Z,87.90
2022-11-25T03:30:50.428Z,91.20
2022-11-25T03:33:16.968Z,89.20
2022-11-25T03:35:43.535Z,108.00
2022-11-25T03:38:10.050Z,94.40
2022-11-25T03:40:36.502Z,79.70
2022-11-25T03:43:03.644Z,77.60
2022-11-25T03:45:30.164Z,68.40
2022-11-25T03:47:56.832Z,69.50
2022-11-25T03:50:23.367Z,67.00
2022-11-25T03:52:49.906Z,67.00
2022-11-25T03:55:16.455Z,67.40
2022-11-25T03:57:42.991Z,67.70
2022-11-25T04:00:10.104Z,69.10
2022-11-25T04:02:36.608Z,89.30
2022-11-25T04:05:03.835Z,77.10
2022-11-25T04:07:30.628Z,66.10
2022-11-25T04:09:57.222Z,72.00
2022-11-25T04:12:23.655Z,65.70
2022-11-25T04:14:50.202Z,65.20
2022-11-25T04:17:16.746Z,62.80
2022-11-25T04:19:43.282Z,62.20
2022-11-25T04:22:09.826Z,66.80
2022-11-25T04:24:36.345Z,83.10
2022-11-25T04:27:03.167Z,76.20
2022-11-25T04:29:29.651Z,65.90
2022-11-25T04:31:56.088Z,72.90
2022-11-25T04:34:22.647Z,71.50
2022-11-25T04:36:49.170Z,70.50
2022-11-25T04:39:15.604Z,65.10
2022-11-25T04:41:42.091Z,62.00
2022-11-25T04:44:08.536Z,61.60
2022-11-25T04:46:39.697Z,61.10
2022-11-25T04:49:06.495Z,73.00
2022-11-25T04:51:32.933Z,61.90
2022-11-25T04:53:59.369Z,65.10
2022-11-25T04:56:25.913Z,72.50
2022-11-25T04:58:52.453Z,86.20
2022-11-25T05:01:18.925Z,93.50
2022-11-25T05:03:50.721Z,90.40
2022-11-25T05:06:19.540Z,99.90
2022-11-25T05:08:49.261Z,82.00
2022-11-25T05:11:16.238Z,84.70
2022-11-25T05:13:43.075Z,91.30
2022-11-25T05:16:09.810Z,91.70
2022-11-25T05:18:36.193Z,93.60
2022-11-25T05:21:04.134Z,80.30
2022-11-25T05:23:31.000Z,104.60
2022-11-25T05:26:02.326Z,132.10
2022-11-25T05:28:29.589Z,95.20
2022-11-25T05:30:56.344Z,90.60
2022-11-25T05:33:23.284Z,92.60
2022-11-25T05:36:01.122Z,81.90
2022-11-25T05:38:28.527Z,90.30
2022-11-25T05:41:01.688Z,82.90
2022-11-25T05:43:28.491Z,86.90
2022-11-25T05:45:54.991Z,85.20
2022-11-25T05:48:21.395Z,90.50
2022-11-25T05:50:47.912Z,97.40
2022-11-25T05:53:14.541Z,97.40
2022-11-25T05:55:40.990Z,84.90
2022-11-25T05:58:07.532Z,91.60
2022-11-25T06:00:34.049Z,183.70
2022-11-25T06:03:00.758Z,163.70
2022-11-25T06:05:27.560Z,159.80
2022-11-25T06:07:54.053Z,156.90
2022-11-25T06:10:20.802Z,130.40
2022-11-25T06:12:47.802Z,120.00
2022-11-25T06:15:14.192Z,129.50
2022-11-25T06:17:40.654Z,134.60
2022-11-25T06:20:07.781Z,159.10
2022-11-25T06:22:34.266Z,264.50
2022-11-25T06:25:03.873Z,125.80
2022-11-25T06:27:50.062Z,128.40
2022-11-25T06:30:17.871Z,122.90
2022-11-25T06:32:44.696Z,140.30
2022-11-25T06:35:11.115Z,112.30
2022-11-25T06:37:37.881Z,99.90
2022-11-25T06:40:07.292Z,93.00
2022-11-25T06:42:34.001Z,97.10
2022-11-25T06:45:00.567Z,89.10
2022-11-25T06:47:26.992Z,101.40
2022-11-25T06:49:53.444Z,99.10
2022-11-25T06:52:19.922Z,95.30
2022-11-25T06:54:46.626Z,80.30
2022-11-25T06:57:17.369Z,77.80
2022-11-25T06:59:43.805Z,89.30
2022-11-25T07:02:12.256Z,104.40
2022-11-25T07:04:39.044Z,95.30
2022-11-25T07:07:05.888Z,91.10
2022-11-25T07:09:32.304Z,87.20
2022-11-25T07:11:58.869Z,94.20
2022-11-25T07:14:25.279Z,111.60
2022-11-25T07:16:52.041Z,103.30
2022-11-25T07:19:19.476Z,101.30
2022-11-25T07:21:46.767Z,97.50
2022-11-25T07:24:15.426Z,119.80
2022-11-25T07:26:43.607Z,117.90
2022-11-25T07:29:36.108Z,134.80
2022-11-25T07:32:02.488Z,120.20
2022-11-25T07:34:32.330Z,134.10
2022-11-25T07:36:58.756Z,231.10
2022-11-25T07:39:25.147Z,150.20
2022-11-25T07:41:54.827Z,106.60
2022-11-25T07:44:21.957Z,111.50
2022-11-25T07:46:49.931Z,111.20
2022-11-25T07:49:22.213Z,99.20
2022-11-25T07:51:57.349Z,100.50
2022-11-25T07:54:24.307Z,110.50
2022-11-25T07:56:51.665Z,102.60
2022-11-25T07:59:20.543Z,99.10
2022-11-25T08:01:49.851Z,104.70
2022-11-25T08:04:20.463Z,109.70
2022-11-25T08:06:49.291Z,110.00
2022-11-25T08:09:21.164Z,105.80
2022-11-25T08:11:49.008Z,322.70
2022-11-25T08:14:16.226Z,116.30
2022-11-25T08:16:42.831Z,103.70
2022-11-25T08:19:12.612Z,103.10
2022-11-25T08:21:40.178Z,102.10
2022-11-25T08:24:06.786Z,96.10
2022-11-25T08:26:36.338Z,98.70
2022-11-25T08:29:05.228Z,96.80
2022-11-25T08:31:34.812Z,100.80
2022-11-25T08:34:01.915Z,105.90
2022-11-25T08:36:29.676Z,106.80
2022-11-25T08:38:58.580Z,101.20
2022-11-25T08:41:31.890Z,101.90
2022-11-25T08:44:00.370Z,100.10
2022-11-25T08:46:30.221Z,114.20
2022-11-25T08:48:57.238Z,112.60
2022-11-25T08:51:27.362Z,141.80
2022-11-25T08:53:54.041Z,144.30
2022-11-25T08:56:26.081Z,104.80
2022-11-25T08:58:56.749Z,107.00
2022-11-25T09:01:24.644Z,109.20
2022-11-25T09:03:52.967Z,103.60
2022-11-25T09:06:20.134Z,109.20
2022-11-25T09:08:46.788Z,155.60
2022-11-25T09:11:13.879Z,113.10
2022-11-25T09:13:40.651Z,110.90
2022-11-25T09:16:07.914Z,117.30
2022-11-25T09:18:34.344Z,140.30
2022-11-25T09:21:08.113Z,112.30
2022-11-25T09:23:34.601Z,116.80
2022-11-25T09:26:01.036Z,136.50
2022-11-25T09:28:27.504Z,143.60
2022-11-25T09:30:54.986Z,146.00
2022-11-25T09:33:21.806Z,125.40
2022-11-25T09:35:48.542Z,129.80
2022-11-25T09:38:15.081Z,126.90
2022-11-25T09:40:56.910Z,109.30
2022-11-25T09:44:01.493Z,99.10
2022-11-25T09:47:04.287Z,103.30
2022-11-25T09:49:52.796Z,99.40
2022-11-25T09:52:22.263Z,89.90
2022-11-25T09:54:57.201Z,92.50
2022-11-25T09:57:56.471Z,99.90
2022-11-25T10:00:33.789Z,123.20
2022-11-25T10:03:06.489Z,125.10
2022-11-25T10:05:44.896Z,123.70
2022-11-25T10:08:21.049Z,106.40
2022-11-25T10:10:53.190Z,92.20
2022-11-25T10:13:32.146Z,100.60
2022-11-25T10:16:04.021Z,102.00
2022-11-25T10:18:39.565Z,101.00
2022-11-25T10:21:06.342Z,104.80
2022-11-25T10:23:36.876Z,114.70
2022-11-25T10:26:12.385Z,103.80
2022-11-25T10:28:43.968Z,96.40
2022-11-25T10:31:17.827Z,95.00
2022-11-25T10:33:46.243Z,92.20
2022-11-25T10:36:23.751Z,99.60
2022-11-25T10:39:05.227Z,117.60
2022-11-25T10:41:53.547Z,160.20
2022-11-25T10:44:27.184Z,154.90
2022-11-25T10:47:18.032Z,189.40
2022-11-25T10:50:18.584Z,147.00
2022-11-25T10:53:00.918Z,147.10
2022-11-25T10:55:30.165Z,141.40
2022-11-25T10:57:56.783Z,159.60
2022-11-25T11:00:43.490Z,160.10
2022-11-25T11:03:16.142Z,167.60
2022-11-25T11:05:49.115Z,177.90
2022-11-25T11:08:19.910Z,163.90
2022-11-25T11:10:51.689Z,163.80
2022-11-25T11:13:24.913Z,186.30
2022-11-25T11:15:54.216Z,163.80
2022-11-25T11:18:38.909Z,165.00
2022-11-25T11:21:08.517Z,163.30
2022-11-25T11:23:50.899Z,199.80
2022-11-25T11:26:34.603Z,177.50
2022-11-25T11:29:03.188Z,188.50
2022-11-25T11:31:36.609Z,197.70
2022-11-25T11:34:18.618Z,181.40
2022-11-25T11:36:45.034Z,186.20
2022-11-25T11:39:30.010Z,215.50
2022-11-25T11:42:06.778Z,216.30
2022-11-25T11:44:54.823Z,181.70
2022-11-25T11:47:58.229Z,180.60
2022-11-25T11:50:37.056Z,180.70
2022-11-25T11:53:30.730Z,179.10
2022-11-25T11:56:35.374Z,158.30
2022-11-25T11:59:23.394Z,152.20
2022-11-25T12:01:58.806Z,156.90
2022-11-25T12:04:36.487Z,154.50
2022-11-25T12:07:47.498Z,159.00
2022-11-25T12:10:58.699Z,161.30
2022-11-25T12:13:42.206Z,170.40
2022-11-25T12:16:17.485Z,181.30
2022-11-25T12:19:06.679Z,181.10
2022-11-25T12:22:00.971Z,205.20
2022-11-25T12:24:53.248Z,224.40
2022-11-25T12:27:38.605Z,223.90
2022-11-25T12:30:18.794Z,251.10
2022-11-25T12:33:01.682Z,250.20
2022-11-25T12:35:37.852Z,225.20
2022-11-25T12:38:04.316Z,213.00
2022-11-25T12:40:53.043Z,217.20
2022-11-25T12:43:42.733Z,253.30
2022-11-25T12:46:12.256Z,224.60
2022-11-25T12:48:41.859Z,201.60
2022-11-25T12:51:26.971Z,226.40
2022-11-25T12:54:34.397Z,223.90
2022-11-25T12:57:07.328Z,209.60
2022-11-25T13:00:11.308Z,193.30
2022-11-25T13:02:57.347Z,155.00
2022-11-25T13:06:04.647Z,157.20
2022-11-25T13:08:49.203Z,149.50
2022-11-25T13:11:31.104Z,154.20
2022-11-25T13:14:13.436Z,147.90
2022-11-25T13:16:42.560Z,148.10
2022-11-25T13:19:10.696Z,147.10
2022-11-25T13:21:54.456Z,151.80
2022-11-25T13:24:47.739Z,192.40
2022-11-25T13:27:33.720Z,235.60
2022-11-25T13:30:01.092Z,227.10
2022-11-25T13:32:35.205Z,223.30
2022-11-25T13:35:23.867Z,228.70
2022-11-25T13:37:51.385Z,228.90
2022-11-25T13:40:21.323Z,236.10
2022-11-25T13:42:47.949Z,226.50
2022-11-25T13:45:38.191Z,230.90
2022-11-25T13:48:32.136Z,234.90
2022-11-25T13:51:19.010Z,254.70
2022-11-25T13:53:56.348Z,245.00
2022-11-25T13:56:30.361Z,268.80
2022-11-25T13:59:12.281Z,241.80
2022-11-25T14:01:46.226Z,263.60
2022-11-25T14:04:15.661Z,260.50
2022-11-25T14:07:09.728Z,266.30
2022-11-25T14:10:02.924Z,264.60
2022-11-25T14:12:47.710Z,258.50
2022-11-25T14:15:14.146Z,259.50
2022-11-25T14:18:02.206Z,250.90
2022-11-25T14:20:34.465Z,254.40
2022-11-25T14:23:00.928Z,253.10
2022-11-25T14:25:32.185Z,248.00
2022-11-25T14:28:20.694Z,253.00
2022-11-25T14:30:53.602Z,265.20
2022-11-25T14:33:34.253Z,280.30
2022-11-25T14:36:08.013Z,266.10
2022-11-25T14:38:48.865Z,258.30
2022-11-25T14:41:52.470Z,247.80
2022-11-25T14:44:28.267Z,245.50
2022-11-25T14:46:57.603Z,231.70
2022-11-25T14:49:59.641Z,217.40
2022-11-25T14:52:17.221Z,221.30
2022-11-25T14:54:45.442Z,207.20
2022-11-25T14:57:12.276Z,213.80
2022-11-25T14:59:44.978Z,176.90
2022-11-25T15:02:58.536Z,167.30
2022-11-25T15:05:30.865Z,170.90
2022-11-25T15:08:09.105Z,175.20
2022-11-25T15:10:44.124Z,189.50
2022-11-25T15:13:38.306Z,190.70
2022-11-25T15:16:12.432Z,193.20
2022-11-25T15:18:47.885Z,168.70
2022-11-25T15:21:15.954Z,188.60
2022-11-25T15:23:42.798Z,205.40
2022-11-25T15:26:17.425Z,201.30
2022-11-25T15:28:44.276Z,189.50
2022-11-25T15:31:17.639Z,187.60
2022-11-25T15:33:45.046Z,169.60
2022-11-25T15:36:11.964Z,191.40
2022-11-25T15:38:44.124Z,175.50
2022-11-25T15:41:21.046Z,172.70
2022-11-25T15:43:51.419Z,172.60
2022-11-25T15:46:18.307Z,182.70
2022-11-25T15:48:47.317Z,177.30
2022-11-25T15:51:41.664Z,188.40
2022-11-25T15:54:21.998Z,231.50
2022-11-25T15:56:53.135Z,328.50
2022-11-25T15:59:45.399Z,294.90
2022-11-25T16:02:30.719Z,308.50
2022-11-25T16:05:12.305Z,219.00
2022-11-25T16:10:25.337Z,166.40
2022-11-25T16:13:22.126Z,226.50
2022-11-25T16:16:07.548Z,321.00
2022-11-25T16:18:42.728Z,339.90
2022-11-25T16:21:13.824Z,377.20
2022-11-25T16:23:43.998Z,394.80
2022-11-25T16:26:15.809Z,375.20
2022-11-25T16:28:50.352Z,355.10
2022-11-25T16:31:17.570Z,330.30
2022-11-25T16:33:44.332Z,332.40
2022-11-25T16:36:10.870Z,313.30
2022-11-25T16:38:37.309Z,325.70
2022-11-25T16:41:30.282Z,359.10
2022-11-25T16:44:00.282Z,355.10
2022-11-25T16:46:29.568Z,320.50
2022-11-25T16:48:56.233Z,330.20
2022-11-25T16:51:24.520Z,361.10
2022-11-25T16:53:51.408Z,387.80
2022-11-25T16:56:26.690Z,421.80
2022-11-25T16:58:53.968Z,406.90
2022-11-25T17:01:24.712Z,390.10
2022-11-25T17:03:51.277Z,387.00
2022-11-25T17:06:22.391Z,443.40
2022-11-25T17:08:50.779Z,456.40
2022-11-25T17:11:32.259Z,412.20
2022-11-25T17:14:02.447Z,446.10
2022-11-25T17:16:30.026Z,427.50
2022-11-25T17:18:59.560Z,435.00
2022-11-25T17:21:27.335Z,453.20
2022-11-25T17:23:55.496Z,461.20
2022-11-25T17:26:31.059Z,430.30
2022-11-25T17:29:00.220Z,439.30
2022-11-25T17:31:29.971Z,415.50
2022-11-25T17:33:56.728Z,400.80
2022-11-25T17:36:24.366Z,394.10
2022-11-25T17:38:50.835Z,388.60
2022-11-25T17:41:19.521Z,394.60
2022-11-25T17:43:49.036Z,390.40
2022-11-25T17:46:17.647Z,414.80
2022-11-25T17:48:44.774Z,470.80
2022-11-25T17:51:13.256Z,449.00
2022-11-25T17:53:41.114Z,424.40
2022-11-25T17:56:28.456Z,369.20
2022-11-25T17:58:59.177Z,390.60
2022-11-25T18:01:25.647Z,381.90
2022-11-25T18:03:52.384Z,389.00
2022-11-25T18:06:19.329Z,417.20
2022-11-25T18:08:45.767Z,382.30
2022-11-25T18:11:18.684Z,387.60
2022-11-25T18:13:47.332Z,376.90
2022-11-25T18:16:17.132Z,440.50
2022-11-25T18:18:43.609Z,434.80
2022-11-25T18:21:11.532Z,418.70
2022-11-25T18:23:38.104Z,429.00
2022-11-25T18:26:05.099Z,448.10
2022-11-25T18:28:32.837Z,441.70
2022-11-25T18:31:04.859Z,449.80
2022-11-25T18:33:31.996Z,445.10
2022-11-25T18:35:58.679Z,414.10
2022-11-25T18:38:25.347Z,438.60
2022-11-25T18:40:53.805Z,408.40
2022-11-25T18:43:23.202Z,449.60
2022-11-25T18:45:50.086Z,444.00
2022-11-25T18:48:19.886Z,431.20
2022-11-25T18:50:49.232Z,411.00
2022-11-25T18:53:16.167Z,404.40
2022-11-25T18:55:43.467Z,386.50
2022-11-25T18:58:23.582Z,405.60
2022-11-25T19:00:52.023Z,465.50
2022-11-25T19:03:24.771Z,506.20
2022-11-25T19:05:52.113Z,390.70
2022-11-25T19:08:18.689Z,402.20
2022-11-25T19:10:47.043Z,424.40
2022-11-25T19:13:35.309Z,391.80
2022-11-25T19:16:07.225Z,393.00
2022-11-25T19:18:35.006Z,394.60
2022-11-25T19:21:01.584Z,368.90
2022-11-25T19:23:28.179Z,388.50
2022-11-25T19:26:00.925Z,431.20
2022-11-25T19:28:29.483Z,458.50
2022-11-25T19:31:00.300Z,411.40
2022-11-25T19:33:31.014Z,394.00
2022-11-25T19:35:57.947Z,374.30
2022-11-25T19:38:24.573Z,339.10
2022-11-25T19:40:54.769Z,338.60
2022-11-25T19:43:21.985Z,343.90
2022-11-25T19:45:51.357Z,357.90
2022-11-25T19:48:20.942Z,409.10
2022-11-25T19:50:49.688Z,374.90
2022-11-25T19:53:20.211Z,350.00
2022-11-25T19:55:47.941Z,334.20
2022-11-25T19:58:15.319Z,410.30
2022-11-25T20:00:43.932Z,377.50
2022-11-25T20:03:17.482Z,313.20
2022-11-25T20:05:44.850Z,290.70
2022-11-25T20:08:19.863Z,256.60
2022-11-25T20:10:46.625Z,283.00
2022-11-25T20:13:13.788Z,277.30
2022-11-25T20:15:41.272Z,334.60
2022-11-25T20:18:17.822Z,394.70
2022-11-25T20:20:46.639Z,372.70
2022-11-25T20:23:43.675Z,426.90
2022-11-25T20:26:18.888Z,397.60
2022-11-25T20:28:45.806Z,408.40
2022-11-25T20:31:13.034Z,500.90
2022-11-25T20:33:39.544Z,395.00
2022-11-25T20:36:11.915Z,414.10
2022-11-25T20:38:47.409Z,372.10
2022-11-25T20:41:15.234Z,348.50
2022-11-25T20:43:43.439Z,340.60
2022-11-25T20:46:24.528Z,315.40
2022-11-25T20:48:56.857Z,299.00
2022-11-25T20:51:24.261Z,360.20
2022-11-25T20:54:00.799Z,333.50
2022-11-25T20:56:28.464Z,309.20
2022-11-25T20:58:55.503Z,302.50
2022-11-25T21:01:22.630Z,286.20
2022-11-25T21:03:50.457Z,236.50
2022-11-25T21:06:16.983Z,209.80
2022-11-25T21:08:47.464Z,197.70
2022-11-25T21:11:14.568Z,228.00
2022-11-25T21:13:41.215Z,261.20
2022-11-25T21:16:07.764Z,254.00
2022-11-25T21:18:34.408Z,236.40
2022-11-25T21:21:01.241Z,253.70
2022-11-25T21:23:35.559Z,260.70
2022-11-25T21:26:20.431Z,239.60
2022-11-25T21:28:49.024Z,284.70
2022-11-25T21:31:24.428Z,265.10
2022-11-25T21:33:56.115Z,282.80
2022-11-25T21:36:28.721Z,273.60
2022-11-25T21:39:05.682Z,247.50
2022-11-25T21:41:33.435Z,244.50
2022-11-25T21:44:00.499Z,296.80
2022-11-25T21:46:27.010Z,277.30
2022-11-25T21:48:53.684Z,255.00
2022-11-25T21:51:20.739Z,249.70
2022-11-25T21:53:47.996Z,241.30
2022-11-25T21:56:25.081Z,223.40
2022-11-25T21:58:51.927Z,211.30
2022-11-25T22:01:18.820Z,214.30
2022-11-25T22:03:45.411Z,194.30
2022-11-25T22:06:26.912Z,218.50
2022-11-25T22:08:54.159Z,245.00
2022-11-25T22:11:32.856Z,261.50
2022-11-25T22:14:02.845Z,266.80
2022-11-25T22:16:32.781Z,254.90
2022-11-25T22:19:00.133Z,249.20
2022-11-25T22:21:26.732Z,320.60
2022-11-25T22:23:53.174Z,280.90
2022-11-25T22:26:26.773Z,305.80
2022-11-25T22:28:54.033Z,305.00
2022-11-25T22:31:21.131Z,294.30
2022-11-25T22:33:48.821Z,265.70
2022-11-25T22:36:35.169Z,251.80
2022-11-25T22:39:13.385Z,241.70
2022-11-25T22:41:42.293Z,222.60
2022-11-25T22:44:19.241Z,203.60
2022-11-25T22:46:46.483Z,206.20
2022-11-25T22:49:38.881Z,214.40
2022-11-25T22:52:10.019Z,231.70
2022-11-25T22:55:21.094Z,191.10
2022-11-25T22:58:32.202Z,217.70
2022-11-25T23:01:43.069Z,221.30
2022-11-25T23:04:53.926Z,217.80
2022-11-25T23:08:04.201Z,220.90
2022-11-25T23:11:14.879Z,178.30
2022-11-25T23:14:24.726Z,180.90
2022-11-25T23:16:51.364Z,183.80
2022-11-25T23:19:17.924Z,194.70
2022-11-25T23:21:45.293Z,221.40
2022-11-25T23:24:15.638Z,211.70
2022-11-25T23:26:43.899Z,212.60
2022-11-25T23:29:10.438Z,235.30
2022-11-25T23:31:39.633Z,211.50
2022-11-25T23:34:07.544Z,227.30
2022-11-25T23:36:44.752Z,246.40
2022-11-25T23:39:21.570Z,221.90
2022-11-25T23:41:48.544Z,232.50
2022-11-25T23:44:21.647Z,217.60
2022-11-25T23:46:48.721Z,203.90
2022-11-25T23:49:28.567Z,226.50
2022-11-25T23:51:57.442Z,218.20
2022-11-25T23:54:54.314Z,254.70
2022-11-25T23:57:31.690Z,238.00
2022-11-25T23:59:58.840Z,217.60
